Time;durP1;ratioP1;P1;durP2;ratioP2;P2;SDS_P1;SDS_P2;PMS_P1;PMS_P2;Temp;Humidity;BMP_temperature;BMP_pressure;BME280_temperature;BME280_humidity;BME280_pressure;Samples;Min_cycle;Max_cycle;Signal;HPM_P1;HPM_P2
2023/09/15 00:01:33;;;;;;;8.07;6.15;;;;;;;13.58;100.00;100661.94;5033864;28;20379;-90
2023/09/15 00:04:00;;;;;;;9.25;6.13;;;;;;;13.61;100.00;100656.56;5034106;28;20541;-90
2023/09/15 00:06:26;;;;;;;8.70;6.43;;;;;;;13.50;100.00;100659.00;5033965;28;20071;-90
2023/09/15 00:08:51;;;;;;;7.95;5.72;;;;;;;13.28;100.00;100652.63;5033851;28;20025;-90
2023/09/15 00:11:17;;;;;;;7.85;6.07;;;;;;;13.36;100.00;100648.72;5033827;28;20040;-90
2023/09/15 00:13:44;;;;;;;10.80;7.07;;;;;;;13.34;100.00;100642.81;5033870;28;20360;-90
2023/09/15 00:16:10;;;;;;;9.55;5.85;;;;;;;13.41;100.00;100642.31;5033721;28;20034;-90
2023/09/15 00:18:35;;;;;;;8.93;5.70;;;;;;;13.34;100.00;100640.22;5033690;28;20028;-90
2023/09/15 00:21:00;;;;;;;8.10;6.28;;;;;;;13.30;100.00;100647.38;5033465;28;20368;-90
2023/09/15 00:23:26;;;;;;;10.00;6.25;;;;;;;13.39;100.00;100635.56;5033661;28;20078;-90
2023/09/15 00:25:54;;;;;;;10.27;7.70;;;;;;;13.28;100.00;100637.09;5033561;28;20022;-89
2023/09/15 00:28:20;;;;;;;12.00;6.18;;;;;;;13.03;100.00;100642.19;5032197;28;20041;-90
2023/09/15 00:30:46;;;;;;;9.55;7.00;;;;;;;13.11;100.00;100629.56;5033461;28;20033;-90
2023/09/15 00:33:11;;;;;;;10.23;6.45;;;;;;;13.17;100.00;100628.34;5033235;28;20022;-90
2023/09/15 00:35:36;;;;;;;11.02;6.60;;;;;;;13.12;100.00;100625.19;5033287;28;20021;-90
2023/09/15 00:38:03;;;;;;;7.45;6.63;;;;;;;13.12;100.00;100628.66;5033201;28;20035;-90
2023/09/15 00:40:28;;;;;;;8.63;6.55;;;;;;;13.17;100.00;100629.16;5031821;28;20506;-89
2023/09/15 00:42:53;;;;;;;10.07;7.00;;;;;;;13.20;100.00;100634.16;5033150;28;20041;-90
2023/09/15 00:45:20;;;;;;;13.25;7.50;;;;;;;12.96;100.00;100627.97;5033393;28;20018;-90
2023/09/15 00:47:49;;;;;;;11.70;7.57;;;;;;;12.93;100.00;100628.16;5033302;28;20424;-90
2023/09/15 00:50:19;;;;;;;9.20;6.65;;;;;;;12.88;100.00;100625.03;5032958;28;20449;-90
2023/09/15 00:52:59;;;;;;;14.80;8.30;;;;;;;12.91;100.00;100630.03;5033554;28;20025;-90
2023/09/15 00:55:26;;;;;;;15.07;9.60;;;;;;;12.93;100.00;100626.41;5033054;28;20030;-90
2023/09/15 00:57:52;;;;;;;9.55;7.65;;;;;;;12.94;100.00;100627.22;5032341;28;20353;-90
2023/09/15 01:00:19;;;;;;;9.98;7.45;;;;;;;12.84;100.00;100624.41;5031744;28;20025;-90
2023/09/15 01:02:46;;;;;;;10.57;7.63;;;;;;;12.85;100.00;100621.72;5032831;28;20022;-89
2023/09/15 01:05:19;;;;;;;8.65;6.80;;;;;;;12.89;100.00;100618.94;5032630;28;20108;-90
2023/09/15 01:07:46;;;;;;;10.98;6.82;;;;;;;12.80;100.00;100618.59;5032890;28;20025;-90
2023/09/15 01:10:14;;;;;;;13.20;7.50;;;;;;;12.78;100.00;100627.41;5032716;28;20533;-90
2023/09/15 01:12:41;;;;;;;8.20;6.85;;;;;;;12.65;100.00;100619.53;5032600;28;20108;-90
2023/09/15 01:15:07;;;;;;;12.40;6.53;;;;;;;12.63;100.00;100626.56;5032718;28;20021;-89
2023/09/15 01:17:43;;;;;;;8.85;6.45;;;;;;;12.58;100.00;100628.63;5032621;28;20036;-89
2023/09/15 01:20:17;;;;;;;8.50;6.70;;;;;;;12.56;100.00;100622.75;5032333;28;20108;-90
2023/09/15 01:23:18;;;;;;;8.60;5.88;;;;;;;12.57;100.00;100629.56;5032479;28;20529;-90
2023/09/15 01:25:52;;;;;;;13.82;6.75;;;;;;;12.55;100.00;100626.25;5031172;28;20034;-89
2023/09/15 01:28:36;;;;;;;9.30;7.50;;;;;;;12.60;100.00;100626.78;5032270;28;20365;-90
2023/09/15 01:31:02;;;;;;;11.48;8.23;;;;;;;12.47;100.00;100624.13;5032185;28;20033;-90
2023/09/15 01:33:27;;;;;;;15.65;9.75;;;;;;;12.57;100.00;100622.63;5032237;28;20105;-90
2023/09/15 01:35:53;;;;;;;11.88;7.85;;;;;;;12.50;100.00;100621.34;5032303;28;20108;-90
2023/09/15 01:38:18;;;;;;;10.32;8.63;;;;;;;12.43;100.00;100618.31;5032391;28;20029;-90
2023/09/15 01:40:43;;;;;;;11.98;8.93;;;;;;;12.42;100.00;100621.00;5032104;28;20029;-90
2023/09/15 01:43:10;;;;;;;14.95;10.27;;;;;;;12.36;100.00;100618.78;5032027;28;20026;-90
2023/09/15 01:45:35;;;;;;;14.70;10.10;;;;;;;12.37;100.00;100616.09;5032092;28;20029;-89
2023/09/15 01:48:02;;;;;;;13.60;9.32;;;;;;;12.43;100.00;100618.31;5032209;28;20533;-89
2023/09/15 01:50:28;;;;;;;14.50;10.05;;;;;;;12.20;100.00;100618.91;5031951;28;20032;-90
2023/09/15 01:52:55;;;;;;;13.27;9.88;;;;;;;12.15;100.00;100613.19;5031874;28;20036;-89
2023/09/15 01:55:21;;;;;;;13.30;9.70;;;;;;;12.26;100.00;100605.56;5031980;28;20526;-89
2023/09/15 01:57:47;;;;;;;13.93;10.68;;;;;;;12.27;100.00;100604.66;5032000;28;20640;-90
2023/09/15 02:00:13;;;;;;;12.57;9.90;;;;;;;12.14;100.00;100601.16;5032089;28;20365;-90
2023/09/15 02:02:38;;;;;;;12.43;9.80;;;;;;;12.18;100.00;100600.06;5030350;28;20406;-90
2023/09/15 02:05:04;;;;;;;12.02;9.93;;;;;;;12.22;100.00;100591.19;5032044;28;20029;-90
2023/09/15 02:07:29;;;;;;;14.35;10.35;;;;;;;12.35;100.00;100607.59;5031652;28;20025;-90
2023/09/15 02:09:55;;;;;;;13.43;9.70;;;;;;;12.35;100.00;100596.44;5031542;28;20475;-90
2023/09/15 02:12:20;;;;;;;11.70;9.18;;;;;;;12.45;100.00;100599.28;5031740;28;20650;-90
2023/09/15 02:14:45;;;;;;;11.75;8.35;;;;;;;12.42;100.00;100601.13;5031708;28;20026;-90
2023/09/15 02:17:15;;;;;;;14.27;9.68;;;;;;;12.22;100.00;100593.78;5031716;28;20036;-89
2023/09/15 02:19:41;;;;;;;13.38;9.45;;;;;;;12.35;100.00;100592.06;5031650;28;20029;-89
2023/09/15 02:22:07;;;;;;;10.50;8.38;;;;;;;12.20;100.00;100596.44;5031538;28;20024;-90
2023/09/15 02:24:32;;;;;;;10.70;9.15;;;;;;;12.06;100.00;100588.69;5030423;28;20372;-90
2023/09/15 02:26:58;;;;;;;12.93;8.95;;;;;;;12.14;100.00;100589.06;5031533;28;20022;-90
2023/09/15 02:29:24;;;;;;;10.20;7.50;;;;;;;12.03;100.00;100588.06;5031661;28;20037;-90
2023/09/15 02:31:51;;;;;;;11.95;7.72;;;;;;;12.04;100.00;100587.97;5031549;28;20030;-89
2023/09/15 02:34:16;;;;;;;8.70;7.20;;;;;;;12.06;100.00;100575.75;5031961;28;20025;-89
2023/09/15 02:36:42;;;;;;;8.30;7.20;;;;;;;11.93;100.00;100575.69;5031455;28;20108;-90
2023/09/15 02:39:07;;;;;;;7.72;6.53;;;;;;;11.99;100.00;100575.28;5031472;28;20025;-90
2023/09/15 02:41:32;;;;;;;10.60;6.90;;;;;;;11.95;100.00;100578.19;5031393;28;20014;-90
2023/09/15 02:43:59;;;;;;;10.75;7.20;;;;;;;12.03;100.00;100573.38;5031368;28;20048;-89
2023/09/15 02:46:25;;;;;;;8.73;6.10;;;;;;;11.90;100.00;100570.72;5031544;28;20020;-90
2023/09/15 02:48:50;;;;;;;8.68;6.93;;;;;;;11.97;100.00;100576.31;5031387;28;20104;-90
2023/09/15 02:51:16;;;;;;;8.27;6.53;;;;;;;11.98;100.00;100572.81;5031253;28;20112;-89
2023/09/15 02:53:41;;;;;;;8.55;6.28;;;;;;;12.16;100.00;100576.84;5029829;28;20025;-90
2023/09/15 02:56:08;;;;;;;6.55;5.88;;;;;;;12.07;100.00;100572.25;5031208;28;20022;-89
2023/09/15 02:58:34;;;;;;;11.75;6.05;;;;;;;11.99;100.00;100572.72;5031391;28;20490;-89
2023/09/15 03:00:59;;;;;;;6.10;5.50;;;;;;;11.95;100.00;100570.44;5031176;28;20029;-90
2023/09/15 03:03:25;;;;;;;13.05;6.90;;;;;;;12.02;100.00;100568.28;5031265;28;20056;-91
2023/09/15 03:06:01;;;;;;;8.73;5.93;;;;;;;11.98;100.00;100571.06;5031281;28;20487;-90
2023/09/15 03:08:28;;;;;;;10.52;6.88;;;;;;;11.83;100.00;100564.22;5031332;28;20026;-89
2023/09/15 03:10:54;;;;;;;9.10;6.28;;;;;;;11.89;100.00;100566.44;5031279;28;20380;-90
2023/09/15 03:13:19;;;;;;;8.20;5.80;;;;;;;11.85;100.00;100562.38;5031040;28;20025;-89
2023/09/15 03:15:45;;;;;;;6.75;5.90;;;;;;;11.83;100.00;100559.03;5031131;28;20025;-89
2023/09/15 03:18:11;;;;;;;6.55;5.53;;;;;;;11.77;100.00;100561.97;5031030;28;20030;-89
2023/09/15 03:20:36;;;;;;;10.35;5.82;;;;;;;11.71;100.00;100555.44;5032357;28;20029;-89
2023/09/15 03:23:01;;;;;;;8.85;7.20;;;;;;;11.76;100.00;100552.56;5034551;28;20017;-89
2023/09/15 03:25:27;;;;;;;11.10;7.28;;;;;;;11.76;100.00;100552.56;5034601;28;20021;-89
2023/09/15 03:27:53;;;;;;;9.02;7.05;;;;;;;11.82;100.00;100556.53;5034384;28;20053;-89
2023/09/15 03:30:18;;;;;;;10.45;7.45;;;;;;;11.69;100.00;100546.94;5034649;28;20018;-90
2023/09/15 03:32:44;;;;;;;9.35;6.45;;;;;;;11.65;100.00;100539.47;5034472;28;20060;-89
2023/09/15 03:35:10;;;;;;;13.10;8.20;;;;;;;11.76;100.00;100537.06;5034414;28;20064;-90
2023/09/15 03:37:36;;;;;;;8.57;7.47;;;;;;;11.63;100.00;100538.72;5034192;28;20452;-89
2023/09/15 03:40:04;;;;;;;10.32;7.63;;;;;;;11.53;100.00;100534.13;5034350;28;20101;-90
2023/09/15 03:42:30;;;;;;;9.18;7.10;;;;;;;11.54;100.00;100538.34;5034258;28;20055;-90
2023/09/15 03:44:55;;;;;;;11.55;7.45;;;;;;;11.60;100.00;100541.50;5034343;28;20029;-90
2023/09/15 03:47:21;;;;;;;9.40;8.02;;;;;;;11.64;100.00;100535.22;5034127;28;20495;-90
2023/09/15 03:49:46;;;;;;;11.05;8.50;;;;;;;11.57;100.00;100540.75;5034173;28;20025;-90
2023/09/15 03:52:12;;;;;;;11.63;9.10;;;;;;;11.61;100.00;100535.38;5034053;28;20021;-90
2023/09/15 03:54:37;;;;;;;13.13;9.10;;;;;;;11.65;100.00;100537.69;5034155;28;20033;-90
2023/09/15 03:57:04;;;;;;;10.27;8.35;;;;;;;11.67;100.00;100525.50;5033887;28;20029;-90
2023/09/15 03:59:30;;;;;;;10.30;7.75;;;;;;;11.68;100.00;100523.75;5034327;28;20029;-90
2023/09/15 04:01:55;;;;;;;11.52;8.07;;;;;;;11.68;100.00;100528.91;5032799;28;20082;-89
2023/09/15 04:04:20;;;;;;;11.95;8.65;;;;;;;11.63;100.00;100526.63;5033798;28;20036;-89
2023/09/15 04:06:46;;;;;;;10.95;8.20;;;;;;;11.62;100.00;100524.13;5032376;28;20179;-90
2023/09/15 04:09:12;;;;;;;9.07;7.40;;;;;;;11.64;100.00;100517.13;5033683;28;20049;-90
2023/09/15 04:11:39;;;;;;;11.38;8.07;;;;;;;11.71;100.00;100514.06;5033652;28;20101;-90
2023/09/15 04:14:04;;;;;;;12.70;8.65;;;;;;;11.74;100.00;100508.69;5033735;28;20079;-89
2023/09/15 04:16:30;;;;;;;10.20;7.97;;;;;;;11.62;100.00;100506.03;5033812;28;20029;-90
2023/09/15 04:18:56;;;;;;;10.60;8.13;;;;;;;11.63;100.00;100507.69;5033698;28;20057;-90
2023/09/15 04:21:22;;;;;;;11.38;8.00;;;;;;;11.54;100.00;100507.34;5033412;28;20049;-89
2023/09/15 04:23:47;;;;;;;14.35;8.55;;;;;;;11.68;100.00;100508.22;5033544;28;20131;-89
2023/09/15 04:26:12;;;;;;;11.90;8.20;;;;;;;11.63;100.00;100505.97;5033506;28;20021;-90
2023/09/15 04:28:38;;;;;;;10.07;8.18;;;;;;;11.63;100.00;100510.28;5033454;28;20033;-90
2023/09/15 04:31:03;;;;;;;14.25;9.23;;;;;;;11.60;100.00;100507.88;5033065;28;20025;-90
2023/09/15 04:33:29;;;;;;;9.63;7.82;;;;;;;11.52;100.00;100509.19;5033519;28;20017;-90
2023/09/15 04:35:55;;;;;;;11.80;8.10;;;;;;;11.54;100.00;100509.91;5033150;28;20259;-89
2023/09/15 04:38:20;;;;;;;15.40;9.85;;;;;;;11.60;100.00;100505.28;5033308;28;20044;-89
2023/09/15 04:40:46;;;;;;;11.65;9.35;;;;;;;11.57;100.00;100503.72;5033463;28;20033;-89
2023/09/15 04:43:12;;;;;;;8.98;7.82;;;;;;;11.42;100.00;100505.50;5033137;28;20154;-89
2023/09/15 04:45:38;;;;;;;11.93;8.45;;;;;;;11.43;100.00;100504.56;5033038;28;20028;-90
2023/09/15 04:48:04;;;;;;;10.75;8.38;;;;;;;11.41;100.00;100498.66;5033095;28;20391;-89
2023/09/15 04:50:29;;;;;;;11.07;8.90;;;;;;;11.38;100.00;100500.59;5033075;28;20029;-89
2023/09/15 04:52:55;;;;;;;12.93;9.20;;;;;;;11.42;100.00;100496.91;5032884;28;20068;-89
2023/09/15 04:55:21;;;;;;;14.07;8.80;;;;;;;11.36;100.00;100503.25;5031574;28;20075;-90
2023/09/15 04:57:47;;;;;;;12.02;9.00;;;;;;;11.43;100.00;100488.22;5032816;28;20029;-90
2023/09/15 05:00:13;;;;;;;13.48;10.48;;;;;;;11.43;100.00;100491.63;5032944;28;20045;-90
2023/09/15 05:02:42;;;;;;;17.13;10.93;;;;;;;11.44;100.00;100492.47;5032768;28;20430;-90
2023/09/15 05:05:08;;;;;;;13.70;9.63;;;;;;;11.37;100.00;100496.34;5032761;28;20036;-89
2023/09/15 05:07:33;;;;;;;14.55;9.60;;;;;;;11.30;100.00;100488.94;5032749;28;20030;-91
2023/09/15 05:09:58;;;;;;;11.75;9.02;;;;;;;11.35;100.00;100497.25;5032677;28;20025;-90
2023/09/15 05:12:24;;;;;;;12.38;9.13;;;;;;;11.22;100.00;100485.19;5031464;28;20061;-89
2023/09/15 05:14:49;;;;;;;12.10;8.52;;;;;;;11.21;100.00;100488.66;5032421;28;20029;-90
2023/09/15 05:17:15;;;;;;;12.40;8.68;;;;;;;11.20;100.00;100492.19;5032606;28;20155;-89
2023/09/15 05:19:40;;;;;;;12.70;9.52;;;;;;;11.26;100.00;100502.16;5032520;28;20033;-90
2023/09/15 05:22:05;;;;;;;16.05;8.95;;;;;;;11.29;100.00;100491.63;5032363;28;20022;-90
2023/09/15 05:24:31;;;;;;;11.07;9.18;;;;;;;11.18;100.00;100492.25;5032563;28;20100;-90
2023/09/15 05:26:56;;;;;;;10.50;8.57;;;;;;;11.18;100.00;100491.44;5032419;28;20025;-89
2023/09/15 05:29:21;;;;;;;12.20;9.13;;;;;;;11.31;100.00;100490.63;5032267;28;20029;-90
2023/09/15 05:31:47;;;;;;;11.07;8.43;;;;;;;11.31;100.00;100495.81;5030991;28;20112;-90
2023/09/15 05:34:12;;;;;;;12.77;9.43;;;;;;;11.26;100.00;100491.81;5031020;28;20014;-90
2023/09/15 05:36:38;;;;;;;13.95;10.40;;;;;;;11.33;100.00;100493.94;5032122;28;20030;-90
2023/09/15 05:39:04;;;;;;;12.20;9.25;;;;;;;11.38;100.00;100491.06;5032268;28;20060;-90
2023/09/15 05:41:30;;;;;;;14.75;9.45;;;;;;;11.44;100.00;100488.13;5032139;28;20029;-89
2023/09/15 05:43:55;;;;;;;12.90;9.70;;;;;;;11.52;100.00;100490.25;5031697;28;20029;-90
2023/09/15 05:46:21;;;;;;;14.88;9.55;;;;;;;11.54;100.00;100491.81;5032258;28;20048;-90
2023/09/15 05:48:46;;;;;;;16.27;8.90;;;;;;;11.60;100.00;100494.97;5032090;28;20108;-89
2023/09/15 05:51:11;;;;;;;14.20;9.75;;;;;;;11.59;100.00;100498.47;5031894;28;20406;-90
2023/09/15 05:53:37;;;;;;;12.45;9.13;;;;;;;11.61;100.00;100491.44;5032239;28;20037;-90
2023/09/15 05:56:03;;;;;;;15.15;10.02;;;;;;;11.64;100.00;100491.28;5032139;28;20109;-91
2023/09/15 05:58:29;;;;;;;14.52;9.80;;;;;;;11.69;100.00;100489.22;5032027;28;20021;-90
2023/09/15 06:00:57;;;;;;;13.98;9.55;;;;;;;11.71;100.00;100497.72;5031926;28;20030;-90
2023/09/15 06:03:24;;;;;;;15.15;9.35;;;;;;;11.75;100.00;100487.09;5031726;28;20036;-90
2023/09/15 06:05:49;;;;;;;13.23;8.95;;;;;;;11.78;100.00;100489.50;5030462;28;20481;-91
2023/09/15 06:08:14;;;;;;;13.88;9.27;;;;;;;11.86;100.00;100478.66;5031821;28;20116;-90
2023/09/15 06:10:40;;;;;;;16.27;8.88;;;;;;;11.87;100.00;100482.13;5031907;28;20032;-90
2023/09/15 06:13:06;;;;;;;12.15;9.02;;;;;;;11.92;100.00;100475.72;5031767;28;20025;-91
2023/09/15 06:15:34;;;;;;;14.95;9.63;;;;;;;12.01;100.00;100473.50;5031573;28;20061;-90
2023/09/15 06:18:00;;;;;;;11.45;8.80;;;;;;;12.05;100.00;100465.47;5031568;28;20366;-90
2023/09/15 06:20:26;;;;;;;13.75;9.20;;;;;;;12.13;100.00;100470.97;5031755;28;20494;-91
2023/09/15 06:22:52;;;;;;;11.18;9.05;;;;;;;12.21;100.00;100471.28;5031778;28;20063;-91
2023/09/15 06:25:17;;;;;;;15.63;9.73;;;;;;;12.29;100.00;100469.97;5031259;28;20108;-90
2023/09/15 06:27:42;;;;;;;11.48;9.90;;;;;;;12.39;100.00;100464.13;5029954;28;20038;-89
2023/09/15 06:30:08;;;;;;;16.45;12.07;;;;;;;12.53;100.00;100465.81;5030227;28;20026;-90
2023/09/15 06:32:33;;;;;;;17.60;11.32;;;;;;;12.59;100.00;100474.94;5031283;28;20029;-89
2023/09/15 06:34:59;;;;;;;16.20;10.60;;;;;;;12.67;100.00;100467.50;5032811;28;20032;-93
2023/09/15 06:37:24;;;;;;;16.20;10.50;;;;;;;12.74;100.00;100473.13;5032593;28;20025;-90
2023/09/15 06:39:49;;;;;;;14.68;11.07;;;;;;;12.80;100.00;100467.50;5031934;28;20029;-91
2023/09/15 06:42:15;;;;;;;17.90;11.13;;;;;;;12.84;100.00;100463.81;5031309;28;20025;-90
2023/09/15 06:44:40;;;;;;;15.05;11.35;;;;;;;12.93;100.00;100473.56;5030536;28;20029;-91
2023/09/15 06:47:06;;;;;;;15.73;11.00;;;;;;;13.09;100.00;100472.50;5031097;28;20033;-92
2023/09/15 06:49:32;;;;;;;15.13;11.25;;;;;;;13.18;100.00;100477.09;5030114;28;20018;-92
2023/09/15 06:51:57;;;;;;;16.48;10.63;;;;;;;13.16;100.00;100478.94;5030377;28;20483;-90
2023/09/15 06:54:23;;;;;;;12.68;10.20;;;;;;;13.16;100.00;100476.34;5031270;28;20030;-89
2023/09/15 06:56:50;;;;;;;16.33;9.93;;;;;;;13.24;100.00;100476.66;5033506;28;20024;-88
2023/09/15 06:59:15;;;;;;;13.70;9.73;;;;;;;13.28;100.00;100473.78;5035168;28;20056;-89
2023/09/15 07:01:40;;;;;;;12.38;10.43;;;;;;;13.33;100.00;100475.25;5035183;28;20021;-89
2023/09/15 07:04:06;;;;;;;15.98;10.23;;;;;;;13.35;100.00;100478.56;5032866;28;20484;-90
2023/09/15 07:06:32;;;;;;;12.75;9.75;;;;;;;13.40;100.00;100479.91;5033725;28;20068;-91
2023/09/15 07:08:57;;;;;;;12.95;9.85;;;;;;;13.31;100.00;100482.28;5034310;28;20545;-94
2023/09/15 07:11:23;;;;;;;13.48;10.55;;;;;;;13.34;100.00;100482.06;5033481;28;20575;-91
2023/09/15 07:13:48;;;;;;;17.08;10.27;;;;;;;13.52;100.00;100480.81;5033322;28;20025;-91
2023/09/15 07:16:13;;;;;;;15.48;10.23;;;;;;;13.72;100.00;100481.19;5012905;28;20109;-90
2023/09/15 07:18:39;;;;;;;14.05;10.05;;;;;;;13.86;100.00;100479.28;5014924;28;20121;-89
2023/09/15 07:21:04;;;;;;;12.95;9.98;;;;;;;14.05;100.00;100478.00;5016304;28;20072;-88
2023/09/15 07:23:29;;;;;;;11.38;9.98;;;;;;;14.18;100.00;100475.34;5034230;28;20514;-89
2023/09/15 07:25:55;;;;;;;18.50;11.48;;;;;;;14.26;100.00;100480.81;5033442;28;20072;-90
2023/09/15 07:28:20;;;;;;;17.58;12.43;;;;;;;14.33;100.00;100476.84;5030007;28;20324;-89
2023/09/15 07:30:45;;;;;;;14.45;11.43;;;;;;;14.30;100.00;100474.47;5034360;28;20105;-89
2023/09/15 07:33:11;;;;;;;12.52;10.85;;;;;;;14.24;100.00;100470.56;5034803;28;20468;-89
2023/09/15 07:35:36;;;;;;;16.50;10.75;;;;;;;14.24;100.00;100470.56;5034556;28;20056;-93
2023/09/15 07:38:03;;;;;;;13.68;11.02;;;;;;;14.17;100.00;100466.75;5034171;28;20025;-90
2023/09/15 07:40:29;;;;;;;13.30;11.68;;;;;;;14.09;100.00;100471.63;5031429;28;20070;-90
2023/09/15 07:42:54;;;;;;;14.15;11.85;;;;;;;14.17;100.00;100468.47;5026808;28;20025;-92
2023/09/15 07:45:20;;;;;;;15.60;12.10;;;;;;;14.36;100.00;100466.22;5034402;28;20087;-90
2023/09/15 07:47:46;;;;;;;14.02;11.30;;;;;;;14.51;100.00;100465.13;5033219;28;20124;-90
2023/09/15 07:50:13;;;;;;;15.00;11.45;;;;;;;14.83;100.00;100471.50;5034311;28;20063;-90
2023/09/15 07:52:39;;;;;;;13.07;11.25;;;;;;;15.61;100.00;100463.75;5033954;28;20021;-88
2023/09/15 07:55:05;;;;;;;12.85;10.57;;;;;;;16.50;100.00;100465.41;5032364;28;20048;-90
2023/09/15 07:57:32;;;;;;;14.40;11.68;;;;;;;15.99;100.00;100469.50;5026059;28;20496;-88
2023/09/15 07:59:58;;;;;;;12.45;10.48;;;;;;;16.08;100.00;100478.34;5033101;28;20032;-89
2023/09/15 08:02:26;;;;;;;14.23;12.70;;;;;;;16.34;100.00;100473.63;5032633;28;20025;-91
2023/09/15 08:04:52;;;;;;;16.15;12.57;;;;;;;16.04;100.00;100469.94;5032693;28;20021;-89
2023/09/15 08:07:17;;;;;;;16.33;12.90;;;;;;;15.96;100.00;100474.94;5032844;28;20067;-90
2023/09/15 08:09:42;;;;;;;16.50;13.18;;;;;;;15.95;100.00;100478.50;5033799;28;20040;-89
2023/09/15 08:12:08;;;;;;;14.98;11.73;;;;;;;15.77;100.00;100476.38;5031928;28;20091;-89
2023/09/15 08:14:33;;;;;;;13.25;11.65;;;;;;;15.89;100.00;100477.22;5032986;28;20026;-89
2023/09/15 08:16:59;;;;;;;14.77;12.10;;;;;;;16.15;100.00;100474.31;5033318;28;20056;-89
2023/09/15 08:19:25;;;;;;;15.27;11.90;;;;;;;16.42;100.00;100471.25;5032344;28;20101;-89
2023/09/15 08:21:50;;;;;;;15.63;12.15;;;;;;;16.58;100.00;100476.88;5033407;28;20491;-89
2023/09/15 08:24:15;;;;;;;14.05;11.85;;;;;;;16.52;100.00;100487.78;5032662;28;20025;-94
2023/09/15 08:26:41;;;;;;;16.42;12.73;;;;;;;16.53;100.00;100480.78;5026601;28;20035;-89
2023/09/15 08:29:06;;;;;;;15.75;12.55;;;;;;;16.59;100.00;100481.13;5019357;28;20041;-88
2023/09/15 08:31:32;;;;;;;15.68;12.25;;;;;;;16.77;100.00;100477.94;5035660;28;20033;-88
2023/09/15 08:33:57;;;;;;;15.23;11.68;;;;;;;16.67;100.00;100477.88;5023393;28;20036;-89
2023/09/15 08:36:25;;;;;;;14.13;11.38;;;;;;;16.80;100.00;100480.31;5026098;28;20032;-89
2023/09/15 08:38:50;;;;;;;13.30;10.40;;;;;;;16.77;100.00;100481.38;5026787;28;20038;-89
2023/09/15 08:41:31;;;;;;;13.73;11.25;;;;;;;16.75;100.00;100479.84;5028251;28;20050;-88
2023/09/15 08:43:56;;;;;;;17.23;11.95;;;;;;;16.67;100.00;100481.31;5029205;28;20034;-88
2023/09/15 08:46:25;;;;;;;13.50;11.10;;;;;;;16.71;100.00;100476.69;5028772;28;20063;-88
2023/09/15 08:48:54;;;;;;;13.00;10.82;;;;;;;16.72;100.00;100473.09;5029929;28;20025;-89
2023/09/15 08:51:20;;;;;;;14.02;12.18;;;;;;;16.69;100.00;100466.38;5021697;28;20097;-88
2023/09/15 08:53:45;;;;;;;14.52;12.35;;;;;;;16.69;100.00;100468.97;5019325;28;20502;-88
2023/09/15 08:56:12;;;;;;;14.05;12.10;;;;;;;16.75;100.00;100466.81;5042641;28;20078;-88
2023/09/15 08:58:38;;;;;;;15.35;12.10;;;;;;;16.82;100.00;100468.00;5042542;28;20021;-89
2023/09/15 09:01:07;;;;;;;15.85;12.25;;;;;;;16.75;100.00;100466.81;5031824;28;20030;-89
2023/09/15 09:03:37;;;;;;;14.80;11.57;;;;;;;16.97;100.00;100465.88;5030678;28;20017;-88
2023/09/15 09:06:05;;;;;;;14.50;12.07;;;;;;;17.19;100.00;100472.72;5029133;28;20538;-88
2023/09/15 09:08:32;;;;;;;16.98;12.18;;;;;;;17.63;100.00;100468.09;5021159;28;20037;-89
2023/09/15 09:11:00;;;;;;;13.32;11.02;;;;;;;18.08;100.00;100462.44;5027766;28;20241;-88
2023/09/15 09:13:26;;;;;;;14.77;10.40;;;;;;;18.32;100.00;100460.25;5013532;28;20129;-88
2023/09/15 09:15:51;;;;;;;14.65;10.48;;;;;;;18.76;99.11;100459.84;5012676;28;20131;-88
2023/09/15 09:18:18;;;;;;;11.88;9.63;;;;;;;19.37;91.43;100456.75;5025437;28;20499;-88
2023/09/15 09:20:49;;;;;;;13.00;9.70;;;;;;;19.74;87.18;100447.22;5032475;28;20045;-88
2023/09/15 09:23:16;;;;;;;10.38;8.30;;;;;;;19.50;86.94;100460.81;5032136;28;20035;-88
2023/09/15 09:25:41;;;;;;;13.60;10.23;;;;;;;19.18;88.73;100452.41;5032460;28;20104;-88
2023/09/15 09:28:07;;;;;;;10.07;9.07;;;;;;;19.39;86.77;100454.00;5026087;28;20143;-88
2023/09/15 09:30:33;;;;;;;13.38;10.23;;;;;;;19.33;87.23;100454.56;5031802;28;20040;-88
2023/09/15 09:32:58;;;;;;;14.52;10.55;;;;;;;19.98;82.80;100457.94;5026894;28;20025;-88
2023/09/15 09:35:24;;;;;;;16.77;10.07;;;;;;;19.80;81.54;100467.56;5024069;28;20028;-88
2023/09/15 09:37:52;;;;;;;14.52;9.48;;;;;;;20.29;78.79;100462.84;5026596;28;20037;-88
2023/09/15 09:40:18;;;;;;;10.57;8.30;;;;;;;19.92;80.55;100465.56;5030733;28;20102;-89
2023/09/15 09:42:44;;;;;;;9.82;7.80;;;;;;;19.95;81.50;100460.88;5032128;28;20025;-88
2023/09/15 09:45:10;;;;;;;14.32;8.30;;;;;;;19.91;80.60;100454.28;5031076;28;20029;-88
2023/09/15 09:47:36;;;;;;;13.13;9.07;;;;;;;19.70;81.81;100461.56;5031988;28;20455;-88
2023/09/15 09:50:06;;;;;;;12.40;8.63;;;;;;;19.35;84.57;100460.47;5031701;28;20546;-88
2023/09/15 09:52:33;;;;;;;12.63;8.30;;;;;;;19.39;85.75;100460.06;5031623;28;20033;-88
2023/09/15 09:55:02;;;;;;;10.82;8.10;;;;;;;19.34;82.79;100451.00;5030652;28;20029;-89
2023/09/15 09:57:28;;;;;;;10.82;8.27;;;;;;;19.39;82.42;100454.00;5031524;28;20033;-88
2023/09/15 09:59:54;;;;;;;12.15;8.68;;;;;;;19.86;80.57;100451.28;5031944;28;20029;-88
2023/09/15 10:02:19;;;;;;;11.88;7.57;;;;;;;19.76;80.70;100453.13;5031872;28;20029;-88
2023/09/15 10:04:45;;;;;;;16.90;8.30;;;;;;;19.76;80.11;100440.03;5031579;28;20070;-88
2023/09/15 10:07:10;;;;;;;13.70;7.65;;;;;;;19.94;78.56;100442.66;5031505;28;20026;-88
2023/09/15 10:09:36;;;;;;;9.93;7.03;;;;;;;20.31;77.37;100437.25;5025080;28;20021;-87
2023/09/15 10:12:03;;;;;;;10.68;7.25;;;;;;;20.23;76.56;100431.97;5031839;28;20414;-88
2023/09/15 10:14:30;;;;;;;9.77;6.78;;;;;;;20.72;75.03;100441.03;5025492;28;20033;-88
2023/09/15 10:17:00;;;;;;;11.60;7.15;;;;;;;20.44;76.47;100445.59;5030767;28;20030;-88
2023/09/15 10:19:26;;;;;;;12.85;8.60;;;;;;;20.40;74.75;100444.22;5031236;28;20036;-88
2023/09/15 10:21:52;;;;;;;12.25;7.93;;;;;;;19.87;78.48;100442.44;5030972;28;20112;-88
2023/09/15 10:24:18;;;;;;;10.65;7.47;;;;;;;19.59;80.90;100439.81;5031395;28;20041;-89
2023/09/15 10:26:44;;;;;;;13.82;7.65;;;;;;;19.74;79.98;100436.75;5031391;28;20017;-88
2023/09/15 10:29:13;;;;;;;10.90;7.15;;;;;;;19.57;79.69;100440.94;5032000;28;20487;-88
2023/09/15 10:31:45;;;;;;;10.68;6.53;;;;;;;19.66;80.96;100446.13;5035263;28;20049;-88
2023/09/15 10:34:11;;;;;;;11.38;7.10;;;;;;;19.58;80.74;100435.56;5035334;28;20905;-87
2023/09/15 10:36:39;;;;;;;11.18;6.68;;;;;;;19.30;83.65;100428.69;5033513;28;20030;-88
2023/09/15 10:39:12;;;;;;;12.43;7.72;;;;;;;19.57;82.41;100426.06;5034083;28;20236;-88
2023/09/15 10:41:38;;;;;;;12.85;6.47;;;;;;;19.86;80.87;100425.91;5029872;28;20021;-88
2023/09/15 10:44:03;;;;;;;13.98;7.78;;;;;;;19.59;81.42;100423.31;5030403;28;20043;-89
2023/09/15 10:46:39;;;;;;;14.43;8.07;;;;;;;19.70;81.79;100425.72;5033099;28;20432;-88
2023/09/15 10:49:21;;;;;;;11.50;7.72;;;;;;;19.78;80.85;100425.00;5015436;28;20066;-89
2023/09/15 10:51:53;;;;;;;13.90;8.00;;;;;;;19.80;81.85;100413.41;5022956;28;20044;-88
2023/09/15 10:54:19;;;;;;;18.55;9.27;;;;;;;19.92;80.60;100414.00;5034999;28;20029;-89
2023/09/15 10:56:46;;;;;;;10.32;7.53;;;;;;;20.43;78.62;100409.03;5034948;28;20048;-88
2023/09/15 10:59:11;;;;;;;14.25;8.40;;;;;;;20.86;75.62;100408.19;5034618;28;20060;-89
2023/09/15 11:01:37;;;;;;;14.52;8.90;;;;;;;20.77;74.72;100398.63;5034580;28;20053;-89
2023/09/15 11:04:04;;;;;;;13.18;8.00;;;;;;;21.30;73.05;100402.00;5035102;28;20044;-89
2023/09/15 11:06:29;;;;;;;11.50;7.47;;;;;;;21.86;71.42;100395.25;5034513;28;20109;-88